Maldives Meteorological Service

METAR

Station
VRMM
METAR VRMM 150800Z 27004KT 9999 FEW018TCU BKN270 32/26 Q1008 NOSIG=
VRMH
METAR VRMH 150800Z 25005KT 9999 FEW018 BKN270 31/26 Q1008=
VRMK
METAR VRMK 150800Z VRB01KT 9999 FEW018 BKN260 31/25 Q1008=
VRMT
METAR VRMT 150800Z 22004KT 9999 FEW018TCU SCT130 BKN260 31/25 Q1007=
VRMG
METAR VRMG 150800Z 22006KT 9999 SCT017TCU BKN110 30/25 Q1008 NOSIG=
Last Updated : 2020-08-15 13:00:16

SPECI

Station
VRMM
VRMH
VRMK
VRMT
VRMG
Last Updated : 2020-08-15 13:00:16